createdAt,value
2022-12-31T00:03:42.936Z,12.9
2022-12-31T00:09:42.950Z,12.9
2022-12-31T00:15:42.905Z,13.1
2022-12-31T00:21:42.960Z,13
2022-12-31T00:27:42.925Z,13
2022-12-31T00:33:42.919Z,13.2
2022-12-31T00:39:42.961Z,13.3
2022-12-31T00:45:43.015Z,13.3
2022-12-31T00:51:42.932Z,13.4
2022-12-31T00:57:42.997Z,13.5
2022-12-31T01:03:42.944Z,13.5
2022-12-31T01:09:42.906Z,13.6
2022-12-31T01:15:43.003Z,13.7
2022-12-31T01:21:42.916Z,13.7
2022-12-31T01:27:42.943Z,13.7
2022-12-31T01:33:42.955Z,13.7
2022-12-31T01:39:42.932Z,13.7
2022-12-31T01:45:42.920Z,13.7
2022-12-31T01:51:42.958Z,13.8
2022-12-31T01:57:42.942Z,13.8
2022-12-31T02:03:42.909Z,13.9
2022-12-31T02:09:42.968Z,13.9
2022-12-31T02:15:42.970Z,13.9
2022-12-31T02:21:42.919Z,14
2022-12-31T02:27:42.960Z,14
2022-12-31T02:33:42.923Z,14
2022-12-31T02:39:42.908Z,14.2
2022-12-31T02:45:42.949Z,14.3
2022-12-31T02:51:42.988Z,14.2
2022-12-31T02:57:42.917Z,14.3
2022-12-31T03:03:42.925Z,14.1
2022-12-31T03:09:42.965Z,14.2
2022-12-31T03:15:42.920Z,14.2
2022-12-31T03:21:42.954Z,14.3
2022-12-31T03:27:42.899Z,14.3
2022-12-31T03:33:42.924Z,14.3
2022-12-31T03:39:42.946Z,14.3
2022-12-31T03:45:43.249Z,14.3
2022-12-31T03:51:42.932Z,14.3
2022-12-31T03:57:42.928Z,14.2
2022-12-31T04:03:42.985Z,14.3
2022-12-31T04:09:42.904Z,14.3
2022-12-31T04:15:42.975Z,14.3
2022-12-31T04:21:42.940Z,14.3
2022-12-31T04:27:42.919Z,14.3
2022-12-31T04:33:42.955Z,14.4
2022-12-31T04:39:42.960Z,14.3
2022-12-31T04:45:42.997Z,14.4
2022-12-31T04:51:42.954Z,14.3
2022-12-31T04:57:42.943Z,14.5
2022-12-31T05:03:42.923Z,14.4
2022-12-31T05:09:42.941Z,14.5
2022-12-31T05:15:42.919Z,14.5
2022-12-31T05:21:42.970Z,14.6
2022-12-31T05:27:42.935Z,14.7
2022-12-31T05:33:42.915Z,14.9
2022-12-31T05:39:42.925Z,14.9
2022-12-31T05:45:42.984Z,15
2022-12-31T05:51:42.903Z,14.9
2022-12-31T05:57:42.910Z,15
2022-12-31T06:03:43.061Z,15.1
2022-12-31T06:09:42.919Z,15
2022-12-31T06:15:42.943Z,15
2022-12-31T06:21:42.959Z,15.1
2022-12-31T06:27:42.949Z,15.1
2022-12-31T06:33:42.935Z,14.9
2022-12-31T06:39:43.041Z,15
2022-12-31T06:45:42.924Z,15
2022-12-31T06:51:42.911Z,15.1
2022-12-31T06:57:42.974Z,15.2
2022-12-31T07:03:42.947Z,15.2
2022-12-31T07:09:43.188Z,15.3
2022-12-31T07:15:42.990Z,15.2
2022-12-31T07:21:42.930Z,15.2
2022-12-31T07:27:42.904Z,15.3
2022-12-31T07:33:42.952Z,15.2
2022-12-31T07:39:42.969Z,15.4
2022-12-31T07:45:42.926Z,15.2
2022-12-31T07:51:42.959Z,15.2
2022-12-31T07:57:42.917Z,15.3
2022-12-31T08:03:42.945Z,15.3
2022-12-31T08:09:42.967Z,15.3
2022-12-31T08:15:42.914Z,15.3
2022-12-31T08:21:42.924Z,15.3
2022-12-31T08:27:42.957Z,15.2
2022-12-31T08:33:42.923Z,15.2
2022-12-31T08:39:42.911Z,15.1
2022-12-31T08:45:42.997Z,15.1
2022-12-31T08:51:42.936Z,15
2022-12-31T08:57:42.923Z,15.2
2022-12-31T09:03:42.977Z,15.1
2022-12-31T09:09:42.938Z,15
2022-12-31T09:15:42.936Z,15.2
2022-12-31T09:21:42.961Z,15.3
2022-12-31T09:27:42.979Z,15.2
2022-12-31T09:33:42.961Z,15.3
2022-12-31T09:39:42.954Z,15.3
2022-12-31T09:45:42.952Z,15.2
2022-12-31T09:51:42.957Z,15.3
2022-12-31T09:57:42.971Z,15.2
2022-12-31T10:03:42.921Z,15.1
2022-12-31T10:09:42.925Z,15.1
2022-12-31T10:15:42.959Z,15
2022-12-31T10:21:42.956Z,15.2
2022-12-31T10:27:42.933Z,15.2
2022-12-31T10:33:42.971Z,15.1
2022-12-31T10:39:42.960Z,15
2022-12-31T10:45:43.144Z,15
2022-12-31T10:51:42.984Z,14.9
2022-12-31T10:57:42.928Z,15
2022-12-31T11:03:42.993Z,14.9
2022-12-31T11:09:49.983Z,14.8
2022-12-31T11:15:49.816Z,14.7
2022-12-31T11:21:42.924Z,14.6
2022-12-31T11:27:47.610Z,14.7
2022-12-31T11:33:46.896Z,14.7
2022-12-31T11:39:42.928Z,14.8
2022-12-31T11:45:48.615Z,14.6
2022-12-31T11:51:48.461Z,14.7
2022-12-31T11:57:42.971Z,14.6
2022-12-31T12:03:43.004Z,14.6
2022-12-31T12:09:47.657Z,14.5
2022-12-31T12:15:42.944Z,14.4
2022-12-31T12:21:42.969Z,14.5
2022-12-31T12:27:42.948Z,14.5
2022-12-31T12:33:42.949Z,14.4
2022-12-31T12:39:43.037Z,14.4
2022-12-31T12:45:45.105Z,14.3
2022-12-31T12:51:42.937Z,14.3
2022-12-31T12:57:42.987Z,14.5
2022-12-31T13:04:07.229Z,14.3
2022-12-31T13:09:42.933Z,14.4
2022-12-31T13:15:42.998Z,14.5
2022-12-31T13:21:42.962Z,15
2022-12-31T13:27:42.955Z,15
2022-12-31T13:33:42.979Z,14.8
2022-12-31T13:39:43.000Z,14.6
2022-12-31T13:45:42.963Z,14.4
2022-12-31T13:51:42.973Z,14.3
2022-12-31T13:57:42.963Z,14.3
2022-12-31T14:03:42.947Z,14.2
2022-12-31T14:09:42.975Z,14.2
2022-12-31T14:15:42.929Z,14.2
2022-12-31T14:21:43.010Z,14.2
2022-12-31T14:27:42.981Z,14.3
2022-12-31T14:33:42.974Z,14.2
2022-12-31T14:39:42.953Z,14
2022-12-31T14:45:43.003Z,14
2022-12-31T14:51:42.969Z,13.9
2022-12-31T14:58:25.440Z,13.7
2022-12-31T15:03:45.851Z,13.5
2022-12-31T15:09:42.957Z,13.5
2022-12-31T15:15:42.965Z,13.5
2022-12-31T15:21:42.975Z,13.3
2022-12-31T15:27:53.260Z,13.3
2022-12-31T15:33:42.950Z,13.2
2022-12-31T15:39:42.983Z,13.4
2022-12-31T15:45:42.954Z,13.3
2022-12-31T15:51:43.001Z,13.3
2022-12-31T15:57:42.981Z,13.5
2022-12-31T16:03:42.951Z,13.5
2022-12-31T16:09:42.957Z,13.5
2022-12-31T16:15:43.021Z,13.6
2022-12-31T16:21:42.964Z,13.6
2022-12-31T16:27:42.947Z,13.5
2022-12-31T16:33:43.005Z,13.5
2022-12-31T16:39:42.966Z,13.6
2022-12-31T16:45:42.965Z,13.4
2022-12-31T16:51:53.453Z,13
2022-12-31T16:57:42.967Z,12.9
2022-12-31T17:03:42.943Z,13
2022-12-31T17:09:42.995Z,12.7
2022-12-31T17:15:43.224Z,12.7
2022-12-31T17:21:42.942Z,12.6
2022-12-31T17:27:43.580Z,12.4
2022-12-31T17:33:42.991Z,12.1
2022-12-31T17:39:42.955Z,11.9
2022-12-31T17:45:43.002Z,11.7
2022-12-31T17:51:53.237Z,11.6
2022-12-31T17:57:42.948Z,11.7
2022-12-31T18:03:42.996Z,11.6
2022-12-31T18:09:42.963Z,11.8
2022-12-31T18:15:42.973Z,11.8
2022-12-31T18:21:42.989Z,11.6
2022-12-31T18:27:42.956Z,11.6
2022-12-31T18:33:42.946Z,11.4
2022-12-31T18:39:43.044Z,11.3
2022-12-31T18:45:42.998Z,11.2
2022-12-31T18:51:42.960Z,10.9
2022-12-31T18:57:42.997Z,10.7
2022-12-31T19:03:42.961Z,10.4
2022-12-31T19:09:45.542Z,10.4
2022-12-31T19:15:42.992Z,9.9
2022-12-31T19:21:42.960Z,9.6
2022-12-31T19:27:42.951Z,9.4
2022-12-31T19:33:42.975Z,9.2
2022-12-31T19:39:43.025Z,9.3
2022-12-31T19:45:43.028Z,9.2
2022-12-31T19:51:43.077Z,9.1
2022-12-31T19:57:42.962Z,9.1
2022-12-31T20:03:43.026Z,8.8
2022-12-31T20:09:42.997Z,8.4
2022-12-31T20:15:42.956Z,8.8
2022-12-31T20:21:42.954Z,8.8
2022-12-31T20:27:42.958Z,8.6
2022-12-31T20:33:43.179Z,8.4
2022-12-31T20:39:42.956Z,8.3
2022-12-31T20:45:43.028Z,8.3
2022-12-31T20:51:47.358Z,8.3
2022-12-31T20:57:42.991Z,8.4
2022-12-31T21:04:05.435Z,8.3
2022-12-31T21:09:42.977Z,8.2
2022-12-31T21:15:42.992Z,8.3
2022-12-31T21:21:42.985Z,8.1
2022-12-31T21:27:42.952Z,8.1
2022-12-31T21:33:42.947Z,8.1
2022-12-31T21:39:42.991Z,8
2022-12-31T21:45:42.963Z,7.8
2022-12-31T21:51:42.986Z,8
2022-12-31T21:58:15.460Z,7.8
2022-12-31T22:03:42.991Z,7.8
2022-12-31T22:09:43.012Z,7.7
2022-12-31T22:15:43.025Z,7.7
2022-12-31T22:21:42.948Z,7.8
2022-12-31T22:27:48.664Z,7.9
2022-12-31T22:33:42.982Z,7.6
2022-12-31T22:39:44.831Z,7.6
2022-12-31T22:45:42.974Z,7.8
2022-12-31T22:51:56.551Z,7.7
2022-12-31T22:57:42.969Z,7.6
2022-12-31T23:03:43.037Z,7.7
2022-12-31T23:09:43.000Z,7.5
2022-12-31T23:15:43.054Z,7.6
2022-12-31T23:21:42.952Z,7.4
2022-12-31T23:27:42.994Z,7.6
2022-12-31T23:33:42.955Z,7.5
2022-12-31T23:39:42.936Z,7.4
2022-12-31T23:45:42.988Z,7.1
2022-12-31T23:51:42.963Z,7.2
2022-12-31T23:57:42.955Z,6.9
